createdAt,value
2018-04-10T00:07:32.120Z,23
2018-04-10T00:17:32.104Z,26
2018-04-10T00:27:32.152Z,21
2018-04-10T00:37:32.176Z,23
2018-04-10T00:47:32.081Z,24
2018-04-10T00:57:32.215Z,23
2018-04-10T01:07:32.231Z,24
2018-04-10T01:17:32.116Z,24
2018-04-10T01:27:32.051Z,25
2018-04-10T01:37:32.381Z,23
2018-04-10T01:47:32.106Z,21
2018-04-10T01:57:32.093Z,24
2018-04-10T02:07:31.997Z,23
2018-04-10T02:17:32.418Z,23
2018-04-10T02:27:32.383Z,22
2018-04-10T02:37:32.431Z,22
2018-04-10T02:47:32.434Z,23
2018-04-10T02:57:32.690Z,23
2018-04-10T03:07:32.377Z,23
2018-04-10T03:17:32.709Z,23
2018-04-10T03:27:32.387Z,23
2018-04-10T03:37:32.385Z,23
2018-04-10T03:47:32.361Z,22
2018-04-10T03:57:32.015Z,24
2018-04-10T04:07:32.117Z,27
2018-04-10T04:17:32.022Z,24
2018-04-10T04:27:32.099Z,26
2018-04-10T04:37:32.081Z,26
2018-04-10T04:47:32.061Z,27
2018-04-10T04:57:32.096Z,28
2018-04-10T05:07:32.057Z,25
2018-04-10T05:17:32.244Z,26
2018-04-10T05:27:32.163Z,24
2018-04-10T05:37:32.122Z,25
2018-04-10T05:47:32.072Z,26
2018-04-10T05:57:32.197Z,25
2018-04-10T06:07:32.092Z,27
2018-04-10T06:17:32.099Z,25
2018-04-10T06:27:32.146Z,26
2018-04-10T06:37:32.170Z,29
2018-04-10T06:47:32.151Z,26
2018-04-10T06:57:32.235Z,28
2018-04-10T07:07:32.507Z,27
2018-04-10T07:17:32.332Z,25
2018-04-10T07:27:33.393Z,27
2018-04-10T07:37:32.645Z,25
2018-04-10T07:47:32.358Z,26
2018-04-10T07:57:32.251Z,29
2018-04-10T08:07:32.253Z,28
2018-04-10T08:17:32.217Z,28
2018-04-10T08:27:32.357Z,26
2018-04-10T08:37:32.206Z,27
2018-04-10T08:47:32.327Z,26
2018-04-10T08:57:32.271Z,26
2018-04-10T09:07:32.248Z,27
2018-04-10T09:17:32.310Z,26
2018-04-10T09:27:32.321Z,26
2018-04-10T09:37:32.366Z,24
2018-04-10T09:47:32.331Z,22
2018-04-10T09:57:32.260Z,22
2018-04-10T10:07:32.302Z,26
2018-04-10T10:17:32.196Z,24
2018-04-10T10:27:32.582Z,25
2018-04-10T10:37:32.219Z,26
2018-04-10T10:47:32.273Z,23
2018-04-10T10:57:32.281Z,26
2018-04-10T11:07:32.278Z,27
2018-04-10T11:17:32.220Z,24
2018-04-10T11:27:32.289Z,28
2018-04-10T11:37:32.222Z,29
2018-04-10T11:47:32.392Z,28
2018-04-10T11:57:32.367Z,26
2018-04-10T12:07:32.280Z,27
2018-04-10T12:17:32.298Z,30
2018-04-10T12:27:32.305Z,30
2018-04-10T12:37:32.411Z,30
2018-04-10T12:47:32.804Z,33
2018-04-10T12:57:32.278Z,31
2018-04-10T13:07:32.384Z,26
2018-04-10T13:17:32.356Z,29
2018-04-10T13:27:32.369Z,33
2018-04-10T13:37:32.262Z,35
2018-04-10T13:47:32.231Z,41
2018-04-10T13:57:32.330Z,39
2018-04-10T14:07:32.606Z,35
2018-04-10T14:17:32.590Z,36
2018-04-10T14:27:32.544Z,32
2018-04-10T14:37:33.937Z,33
2018-04-10T14:47:32.399Z,34
2018-04-10T14:57:32.328Z,36
2018-04-10T15:07:32.525Z,36
2018-04-10T15:17:32.424Z,40
2018-04-10T15:27:32.350Z,43
2018-04-10T15:37:33.402Z,41
2018-04-10T15:47:32.625Z,38
2018-04-10T15:57:32.560Z,35
2018-04-10T16:07:32.905Z,36
2018-04-10T16:17:32.735Z,33
2018-04-10T16:27:35.636Z,35
2018-04-10T16:37:32.405Z,35
2018-04-10T16:47:32.399Z,34
2018-04-10T16:57:32.726Z,32
2018-04-10T17:07:32.457Z,30
2018-04-10T17:17:32.293Z,31
2018-04-10T17:27:33.321Z,30
2018-04-10T17:37:32.941Z,29
2018-04-10T17:47:32.371Z,28
2018-04-10T17:57:32.519Z,28
2018-04-10T18:07:33.522Z,29
2018-04-10T18:17:32.446Z,31
2018-04-10T18:27:33.158Z,29
2018-04-10T18:37:32.389Z,28
2018-04-10T18:47:32.393Z,27
2018-04-10T18:57:32.607Z,29
2018-04-10T19:07:32.371Z,28
2018-04-10T19:17:32.630Z,28
2018-04-10T19:27:33.488Z,30
2018-04-10T19:37:32.358Z,29
2018-04-10T19:47:32.644Z,30
2018-04-10T19:57:32.363Z,31
2018-04-10T20:07:32.728Z,31
2018-04-10T20:17:32.748Z,29
2018-04-10T20:27:32.406Z,30
2018-04-10T20:37:32.485Z,30
2018-04-10T20:47:32.571Z,30
2018-04-10T20:57:32.485Z,29
2018-04-10T21:07:33.732Z,31
2018-04-10T21:17:33.524Z,34
2018-04-10T21:27:32.665Z,30
2018-04-10T21:37:32.320Z,29
2018-04-10T21:47:34.534Z,17
2018-04-10T21:57:34.293Z,15
2018-04-10T22:07:32.829Z,16
2018-04-10T22:17:32.434Z,16
2018-04-10T22:27:32.474Z,15
2018-04-10T22:37:33.019Z,15
2018-04-10T22:47:32.375Z,15
2018-04-10T22:57:32.519Z,14
2018-04-10T23:07:32.391Z,13
2018-04-10T23:17:32.480Z,13
2018-04-10T23:27:32.376Z,16
2018-04-10T23:37:32.340Z,20
2018-04-10T23:47:32.473Z,21
2018-04-10T23:57:32.475Z,20
